Time;durP1;ratioP1;P1;durP2;ratioP2;P2;SDS_P1;SDS_P2;PMS_P1;PMS_P2;Temp;Humidity;BMP_temperature;BMP_pressure;BME280_temperature;BME280_humidity;BME280_pressure;Samples;Min_cycle;Max_cycle;Signal;HPM_P1;HPM_P2
2021/03/25 00:01:38;;;;;;;38.37;23.37;;;;;;;-1.17;87.33;100017.59;5058000;28;20221;-79
2021/03/25 00:05:01;;;;;;;39.57;23.70;;;;;;;-0.96;87.34;100065.66;5020622;23;20237;-78
2021/03/25 00:08:33;;;;;;;39.60;23.57;;;;;;;-1.00;87.69;100059.00;5059219;28;20228;-78
2021/03/25 00:12:11;;;;;;;42.27;24.80;;;;;;;-1.19;87.85;100035.31;5038260;28;20218;-80
2021/03/25 00:15:03;;;;;;;43.30;23.77;;;;;;;-1.13;88.09;100057.59;5025229;28;20210;-79
2021/03/25 00:18:11;;;;;;;42.40;23.43;;;;;;;-1.20;88.31;100059.94;5039091;28;20266;-79
2021/03/25 00:21:20;;;;;;;42.50;25.77;;;;;;;-1.13;89.07;100057.59;5085531;23;20304;-80
2021/03/25 00:24:03;;;;;;;47.90;26.57;;;;;;;-1.29;89.02;100029.19;5043698;28;20182;-83
2021/03/25 00:27:18;;;;;;;49.13;26.60;;;;;;;-1.17;89.50;100046.53;5046214;28;20233;-84
2021/03/25 00:31:13;;;;;;;45.00;26.33;;;;;;;-1.29;89.75;100021.28;5049166;23;20216;-80
2021/03/25 00:34:27;;;;;;;45.67;26.03;;;;;;;-1.07;89.71;100057.03;5078406;28;20182;-80
2021/03/25 00:37:37;;;;;;;45.70;26.13;;;;;;;-1.02;89.79;100053.03;5076870;28;20193;-80
2021/03/25 00:41:08;;;;;;;51.07;28.33;;;;;;;-0.96;89.95;100054.31;5078227;28;20277;-80
2021/03/25 00:44:48;;;;;;;47.17;26.17;;;;;;;-1.13;89.92;100007.66;5054269;28;20212;-79
2021/03/25 00:48:08;;;;;;;45.07;26.53;;;;;;;-0.90;90.05;100046.72;5057917;28;20182;-80
2021/03/25 00:52:05;;;;;;;48.10;26.20;;;;;;;-0.91;89.69;100039.78;5025517;28;20193;-79
2021/03/25 00:55:18;;;;;;;47.80;25.70;;;;;;;-1.13;89.59;100005.00;5040577;28;20262;-79
2021/03/25 00:58:37;;;;;;;45.67;26.73;;;;;;;-0.87;89.41;100035.06;5023216;28;20210;-80
2021/03/25 01:01:59;;;;;;;48.03;26.37;;;;;;;-0.98;89.39;100006.28;5043262;28;20253;-80
2021/03/25 01:05:47;;;;;;;45.17;25.50;;;;;;;-0.97;89.33;100010.56;5112606;23;21351;-79
2021/03/25 01:14:06;;;;;;;44.40;25.30;;;;;;;-1.08;88.69;100008.91;5136982;23;20239;-80
2021/03/25 01:22:13;;;;;;;41.00;24.47;;;;;;;-0.87;88.52;100019.28;5083706;23;20216;-80
2021/03/25 01:26:29;;;;;;;41.00;23.10;;;;;;;-0.89;88.65;100029.94;5084095;23;20209;-79
2021/03/25 01:30:05;;;;;;;42.03;24.27;;;;;;;-0.96;88.85;100015.69;5086146;23;20214;-79
2021/03/25 01:33:43;;;;;;;42.73;24.57;;;;;;;-1.00;88.52;100013.47;5056874;28;20229;-79
2021/03/25 01:37:04;;;;;;;41.23;23.87;;;;;;;-1.19;88.66;99993.22;5150930;23;20238;-78
2021/03/25 01:41:09;;;;;;;38.97;22.77;;;;;;;-1.05;88.64;100018.31;5402714;23;20205;-79
2021/03/25 01:44:44;;;;;;;38.90;23.70;;;;;;;-1.11;88.66;100009.16;5040305;23;20239;-80
2021/03/25 01:48:03;;;;;;;41.27;23.93;;;;;;;-1.26;88.75;99984.22;4947247;28;20212;-79
2021/03/25 01:51:50;;;;;;;39.50;23.67;;;;;;;-1.12;89.12;100018.00;4975805;28;20252;-80
2021/03/25 01:55:56;;;;;;;43.90;23.73;;;;;;;-1.11;89.04;100009.16;5029458;23;20242;-78
2021/03/25 01:59:01;;;;;;;40.47;23.67;;;;;;;-1.15;89.16;100002.50;5036219;28;20201;-80
2021/03/25 02:02:17;;;;;;;44.00;24.63;;;;;;;-1.17;89.35;100009.72;5053665;23;20221;-78
2021/03/25 02:06:10;;;;;;;42.43;24.17;;;;;;;-1.19;89.41;100006.38;5072465;23;20228;-79
2021/03/25 02:09:47;;;;;;;41.43;23.53;;;;;;;-1.26;89.33;100005.25;5042040;28;20206;-81
2021/03/25 02:13:25;;;;;;;41.33;24.23;;;;;;;-1.26;89.40;100013.13;5076564;23;20221;-80
2021/03/25 02:16:54;;;;;;;43.53;24.13;;;;;;;-1.29;89.43;100002.91;5057721;28;20224;-79
2021/03/25 02:20:24;;;;;;;43.03;23.87;;;;;;;-1.34;89.47;100005.94;5081510;23;20252;-80
2021/03/25 02:23:51;;;;;;;43.60;24.43;;;;;;;-1.34;89.85;100005.94;5074014;28;20220;-79
2021/03/25 02:27:14;;;;;;;45.97;25.70;;;;;;;-1.38;89.83;99995.81;5035034;28;20236;-79
2021/03/25 02:30:13;;;;;;;43.23;24.50;;;;;;;-1.55;89.77;99978.06;5037154;28;20228;-83
2021/03/25 02:33:27;;;;;;;44.43;24.57;;;;;;;-1.57;89.99;99969.50;5037382;28;20242;-91
2021/03/25 02:36:23;;;;;;;43.50;24.00;;;;;;;-1.46;90.03;99993.03;5025645;28;20190;-81
2021/03/25 02:40:00;;;;;;;42.50;24.30;;;;;;;-1.42;89.97;99995.25;5045815;28;20216;-79
2021/03/25 02:43:10;;;;;;;43.53;23.83;;;;;;;-1.43;89.67;99993.59;5057282;28;20221;-79
2021/03/25 02:46:20;;;;;;;41.57;23.43;;;;;;;-1.62;89.57;99969.88;5050736;28;20288;-95
2021/03/25 02:49:14;;;;;;;41.43;23.53;;;;;;;-1.48;90.08;99992.34;5050024;28;20232;-94
2021/03/25 02:52:36;;;;;;;42.90;23.83;;;;;;;-1.52;90.03;99989.16;5046212;28;20235;-91
2021/03/25 02:55:36;;;;;;;41.17;23.67;;;;;;;-1.60;90.80;99972.38;5032707;28;20228;-95
2021/03/25 02:58:37;;;;;;;45.47;24.60;;;;;;;-1.61;90.68;99966.31;5050565;28;20229;-89
2021/03/25 03:01:28;;;;;;;42.10;24.47;;;;;;;-1.62;90.54;99969.88;5056243;28;20165;-88
2021/03/25 03:04:39;;;;;;;44.63;23.57;;;;;;;-1.54;90.52;99990.25;5031113;28;20249;-91
2021/03/25 03:07:41;;;;;;;43.63;23.53;;;;;;;-1.64;90.20;99968.38;5053114;28;20227;-95
2021/03/25 03:11:19;;;;;;;45.37;24.50;;;;;;;-1.65;90.33;99967.53;5061165;28;20221;-91
2021/03/25 03:14:42;;;;;;;43.37;23.33;;;;;;;-1.77;89.74;99959.91;5029368;28;20221;-93
2021/03/25 03:17:41;;;;;;;43.50;22.30;;;;;;;-1.79;89.94;99966.13;5015851;28;20332;-91
2021/03/25 03:21:02;;;;;;;42.33;23.73;;;;;;;-1.80;90.23;99985.47;5012527;28;20260;-88
2021/03/25 03:24:05;;;;;;;45.67;25.07;;;;;;;-1.89;90.23;99977.53;4992036;28;20694;-91
2021/03/25 03:27:15;;;;;;;44.07;24.77;;;;;;;-1.87;90.40;99986.94;4986393;28;20273;-94
2021/03/25 03:30:02;;;;;;;47.73;25.23;;;;;;;-1.86;90.89;99982.50;4999927;28;20223;-93
2021/03/25 03:33:22;;;;;;;47.17;25.17;;;;;;;-1.85;91.00;99986.81;5004715;28;20320;-94
2021/03/25 03:36:24;;;;;;;43.37;24.43;;;;;;;-1.89;91.39;99988.88;5038652;28;20222;-94
2021/03/25 03:39:28;;;;;;;45.03;24.67;;;;;;;-1.87;91.08;99991.38;5005568;28;20226;-95
2021/03/25 03:42:26;;;;;;;42.77;24.50;;;;;;;-1.90;91.06;99986.38;4988260;28;20222;-94
2021/03/25 03:45:25;;;;;;;43.07;24.10;;;;;;;-2.07;91.44;99969.44;5004913;28;20233;-94
2021/03/25 03:48:31;;;;;;;44.23;25.07;;;;;;;-1.91;91.24;99984.69;5017758;28;20222;-92
2021/03/25 03:51:37;;;;;;;47.47;25.37;;;;;;;-1.94;91.33;99979.72;5017536;28;20231;-93
2021/03/25 03:54:29;;;;;;;43.90;24.30;;;;;;;-2.00;91.17;99973.19;4986791;28;20254;-88
2021/03/25 03:57:36;;;;;;;48.37;24.83;;;;;;;-1.89;91.70;99985.41;5018417;28;20230;-88
2021/03/25 04:00:43;;;;;;;44.13;25.17;;;;;;;-1.85;92.07;99979.75;5003593;28;20223;-88
2021/03/25 04:03:54;;;;;;;45.87;25.00;;;;;;;-1.85;91.74;99984.19;5005203;28;20241;-91
2021/03/25 04:07:10;;;;;;;44.57;23.60;;;;;;;-1.97;91.75;99972.97;5026869;28;20573;-95
2021/03/25 04:10:39;;;;;;;43.53;24.00;;;;;;;-1.88;91.84;99976.59;5004189;28;20242;-90
2021/03/25 04:13:43;;;;;;;44.57;24.20;;;;;;;-1.95;92.14;99968.38;5001825;28;20231;-92
2021/03/25 04:16:35;;;;;;;42.67;23.23;;;;;;;-2.09;91.71;99947.72;5019427;28;20317;-94
2021/03/25 04:19:33;;;;;;;44.00;24.20;;;;;;;-1.94;91.79;99967.44;5028990;28;20226;-94
2021/03/25 04:22:33;;;;;;;45.23;25.17;;;;;;;-2.03;92.20;99962.97;5004600;28;20230;-90
2021/03/25 04:25:35;;;;;;;49.07;25.07;;;;;;;-1.96;92.08;99982.47;5033925;28;20222;-94
2021/03/25 04:28:35;;;;;;;45.57;24.97;;;;;;;-1.97;92.14;99978.22;5008774;28;20268;-91
2021/03/25 04:31:28;;;;;;;43.67;23.60;;;;;;;-1.96;92.40;99976.41;5017728;28;20631;-93
2021/03/25 04:34:17;;;;;;;42.63;24.30;;;;;;;-2.02;92.40;99980.41;5017815;28;20306;-88
2021/03/25 04:37:11;;;;;;;43.73;23.67;;;;;;;-1.98;92.22;99979.16;4987315;28;20219;-95
2021/03/25 04:39:59;;;;;;;44.13;23.93;;;;;;;-2.13;92.05;99969.97;4994789;28;20234;-91
2021/03/25 04:42:50;;;;;;;45.27;24.70;;;;;;;-2.01;92.03;99987.31;5017565;28;20249;-93
2021/03/25 04:45:53;;;;;;;44.87;24.67;;;;;;;-2.11;92.11;99973.31;5016516;28;20514;-90
2021/03/25 04:48:47;;;;;;;44.43;23.97;;;;;;;-2.16;92.07;99961.53;5017795;28;20254;-93
2021/03/25 04:51:53;;;;;;;47.17;24.80;;;;;;;-2.01;92.28;99970.72;5004829;28;20233;-92
2021/03/25 04:54:44;;;;;;;47.27;26.20;;;;;;;-1.98;92.36;99967.81;5003342;28;20227;-94
2021/03/25 04:57:51;;;;;;;45.60;25.23;;;;;;;-1.84;92.48;99983.22;5017851;28;20547;-86
2021/03/25 05:00:40;;;;;;;47.40;25.30;;;;;;;-1.80;92.38;99980.19;5010263;28;20226;-92
2021/03/25 05:03:31;;;;;;;48.13;25.57;;;;;;;-1.73;91.85;99987.56;5017263;28;20229;-93
2021/03/25 05:06:53;;;;;;;49.93;24.77;;;;;;;-1.79;91.90;99973.16;5003326;28;20579;-90
2021/03/25 05:09:48;;;;;;;47.03;24.67;;;;;;;-1.67;91.22;99985.22;5022083;28;20218;-90
2021/03/25 05:12:35;;;;;;;49.80;25.60;;;;;;;-1.63;91.39;99973.47;5010402;28;20231;-93
2021/03/25 05:15:27;;;;;;;51.30;25.60;;;;;;;-1.73;90.59;99962.13;5017707;28;20263;-91
2021/03/25 05:18:40;;;;;;;45.53;24.97;;;;;;;-1.48;90.45;99987.91;4986225;28;20219;-94
2021/03/25 05:22:00;;;;;;;47.90;25.30;;;;;;;-1.39;90.19;99994.16;4987801;28;20229;-92
2021/03/25 05:25:14;;;;;;;47.53;25.83;;;;;;;-1.32;89.70;99987.41;4980367;28;20229;-94
2021/03/25 05:28:25;;;;;;;46.60;25.20;;;;;;;-1.29;89.60;99984.50;5019503;28;20574;-93
2021/03/25 05:31:12;;;;;;;46.90;25.93;;;;;;;-1.26;89.08;99986.84;5022983;28;20641;-91
2021/03/25 05:34:06;;;;;;;46.77;24.97;;;;;;;-1.04;88.84;99999.78;5004527;28;20226;-91
2021/03/25 05:37:01;;;;;;;47.93;26.10;;;;;;;-0.88;88.51;100000.03;5019650;28;20296;-95
2021/03/25 05:39:42;;;;;;;44.07;24.53;;;;;;;-0.82;87.85;99997.84;5013678;28;20235;-80
2021/03/25 05:43:05;;;;;;;43.77;25.80;;;;;;;-0.76;87.41;99982.34;5035450;28;20174;-78
2021/03/25 05:46:31;;;;;;;45.20;25.90;;;;;;;-0.36;86.55;100005.00;5036755;28;20241;-78
2021/03/25 05:49:58;;;;;;;41.57;23.90;;;;;;;-0.18;85.93;100000.69;5031986;23;20221;-79
2021/03/25 05:53:11;;;;;;;41.43;24.73;;;;;;;0.02;85.18;100006.72;5082001;23;20251;-78
2021/03/25 05:56:19;;;;;;;40.93;24.00;;;;;;;0.19;84.53;100003.34;5096922;23;20237;-78
2021/03/25 05:59:31;;;;;;;42.43;24.40;;;;;;;0.30;84.05;99987.34;5019827;28;20289;-78
2021/03/25 06:03:15;;;;;;;44.30;24.43;;;;;;;0.54;82.70;99994.75;5055187;28;20198;-78
2021/03/25 06:06:53;;;;;;;40.07;24.07;;;;;;;0.66;82.20;99975.91;5051807;23;20293;-78
2021/03/25 06:11:10;;;;;;;37.10;23.00;;;;;;;1.07;80.83;100008.88;5059449;23;20237;-79
2021/03/25 06:15:08;;;;;;;40.40;23.23;;;;;;;1.32;79.87;100020.47;5056732;23;20228;-79
2021/03/25 06:18:58;;;;;;;39.03;22.63;;;;;;;1.56;78.75;100012.75;4995655;28;20245;-79
2021/03/25 06:22:42;;;;;;;39.93;22.63;;;;;;;1.78;77.70;100020.19;5096778;23;20241;-79
2021/03/25 06:26:03;;;;;;;35.97;22.50;;;;;;;2.04;77.20;100014.09;5070594;23;20225;-80
2021/03/25 06:30:01;;;;;;;45.00;28.43;;;;;;;2.26;76.58;100012.72;5061189;28;20259;-79
2021/03/25 06:33:42;;;;;;;55.53;34.17;;;;;;;2.52;76.14;100016.19;5062459;23;20280;-79
2021/03/25 06:37:23;;;;;;;42.30;23.73;;;;;;;2.73;75.04;100013.13;5091946;23;20240;-79
2021/03/25 06:41:13;;;;;;;35.67;23.17;;;;;;;2.93;74.68;100015.34;5080350;23;20227;-78
2021/03/25 06:44:45;;;;;;;33.77;21.87;;;;;;;3.09;74.18;100020.66;4991806;28;20228;-80
2021/03/25 06:48:23;;;;;;;37.93;23.13;;;;;;;3.27;73.21;100028.47;5055371;28;20173;-79
2021/03/25 06:55:16;;;;;;;37.80;23.03;;;;;;;3.67;72.75;100025.03;5039785;23;20221;-78
2021/03/25 06:58:34;;;;;;;38.63;23.37;;;;;;;3.85;72.38;100024.88;5053757;28;20237;-79
2021/03/25 07:01:47;;;;;;;36.73;23.77;;;;;;;3.94;72.39;100027.34;5071837;28;20241;-80
2021/03/25 07:04:53;;;;;;;36.37;23.33;;;;;;;4.14;71.94;100029.66;5050356;23;20231;-80
2021/03/25 07:08:32;;;;;;;38.33;23.53;;;;;;;4.28;71.70;100021.00;5035056;28;20217;-79
2021/03/25 07:11:34;;;;;;;34.53;22.77;;;;;;;4.59;70.45;100036.97;5027002;28;20263;-78
2021/03/25 07:14:13;;;;;;;35.30;23.40;;;;;;;4.75;69.76;100028.97;5032284;28;20227;-79
2021/03/25 07:16:57;;;;;;;39.80;23.57;;;;;;;4.88;70.30;100031.88;5075459;23;20217;-77
2021/03/25 07:24:44;;;;;;;41.27;25.63;;;;;;;5.37;69.20;100029.75;4982794;28;20218;-78
2021/03/25 07:27:48;;;;;;;39.30;24.97;;;;;;;5.47;68.87;100017.06;4992342;28;20251;-80
2021/03/25 07:31:03;;;;;;;39.63;25.17;;;;;;;5.67;67.70;100022.75;5140853;22;20229;-78
2021/03/25 07:34:59;;;;;;;37.63;25.27;;;;;;;5.98;66.98;100034.13;5168185;23;20229;-78
2021/03/25 07:38:52;;;;;;;37.00;24.53;;;;;;;6.22;67.32;100027.75;5148456;23;20227;-78
2021/03/25 07:42:00;;;;;;;37.23;24.60;;;;;;;6.04;66.87;100006.81;5063051;23;20250;-79
2021/03/25 07:45:57;;;;;;;36.80;25.60;;;;;;;6.50;65.85;100041.25;5031155;23;20342;-79
2021/03/25 07:49:08;;;;;;;35.37;24.20;;;;;;;6.70;66.33;100044.22;5079650;23;20231;-78
2021/03/25 07:52:53;;;;;;;36.83;25.63;;;;;;;6.90;65.85;100039.97;5071705;28;20271;-79
2021/03/25 07:56:20;;;;;;;36.57;24.87;;;;;;;6.95;64.20;100022.41;4560719;22;17958958;-80
2021/03/25 07:59:32;;;;;;;36.83;24.33;;;;;;;7.11;64.10;100005.38;5115783;22;20227;-80
2021/03/25 08:03:07;;;;;;;36.27;24.13;;;;;;;7.45;62.72;100036.72;5129838;28;20176;-80
2021/03/25 08:05:52;;;;;;;33.17;23.27;;;;;;;7.53;61.54;100026.75;5323215;22;20262;-80
2021/03/25 08:08:41;;;;;;;34.83;23.63;;;;;;;7.77;60.15;100030.03;5133383;28;20225;-79
2021/03/25 08:11:32;;;;;;;34.00;22.73;;;;;;;7.85;59.22;100025.38;5124174;28;20250;-82
2021/03/25 08:14:27;;;;;;;31.70;22.90;;;;;;;8.00;57.67;100016.47;5117829;28;20215;-80
2021/03/25 08:17:50;;;;;;;35.00;23.67;;;;;;;8.25;58.21;100023.88;5132901;28;20203;-79
2021/03/25 08:21:22;;;;;;;35.13;24.57;;;;;;;8.39;56.90;100014.13;5122751;22;20224;-80
2021/03/25 08:24:32;;;;;;;33.33;24.33;;;;;;;8.62;56.63;100024.53;5108467;22;20251;-79
2021/03/25 08:27:57;;;;;;;32.77;22.03;;;;;;;8.73;57.70;100030.13;5106352;28;20295;-79
2021/03/25 08:31:57;;;;;;;35.37;22.77;;;;;;;8.65;56.41;99978.72;5110454;22;20224;-80
2021/03/25 08:35:04;;;;;;;33.93;22.77;;;;;;;9.04;55.47;100016.28;5110389;28;20240;-79
2021/03/25 08:37:53;;;;;;;30.07;22.27;;;;;;;9.16;55.11;100013.84;5128952;22;20236;-79
2021/03/25 08:41:45;;;;;;;34.00;23.73;;;;;;;9.30;54.57;100004.84;5059127;28;20224;-79
2021/03/25 08:44:53;;;;;;;30.10;22.13;;;;;;;9.43;54.08;100017.41;5070661;28;20288;-79
2021/03/25 08:48:19;;;;;;;31.77;22.13;;;;;;;9.55;53.67;100011.28;5150849;22;20233;-83
2021/03/25 08:51:18;;;;;;;29.90;23.03;;;;;;;9.62;53.06;100003.25;5111891;28;20295;-83
2021/03/25 08:54:22;;;;;;;30.17;22.47;;;;;;;9.68;52.71;99999.75;5128122;28;20231;-79
2021/03/25 08:57:27;;;;;;;30.40;22.07;;;;;;;9.79;52.52;100001.00;5122455;28;20234;-83
2021/03/25 09:00:38;;;;;;;31.97;23.13;;;;;;;10.01;52.83;99999.75;5094294;28;20224;-83
2021/03/25 09:03:36;;;;;;;32.73;23.63;;;;;;;9.82;51.73;99980.00;5168008;22;20278;-83
2021/03/25 09:06:25;;;;;;;28.10;21.50;;;;;;;9.84;52.05;99979.81;5058854;28;20237;-81
2021/03/25 09:09:36;;;;;;;31.50;22.93;;;;;;;10.12;52.99;99997.28;5052385;28;20568;-79
2021/03/25 09:12:32;;;;;;;35.63;23.37;;;;;;;10.01;51.74;99964.97;5052796;28;20227;-81
2021/03/25 09:15:32;;;;;;;31.60;22.37;;;;;;;10.29;51.57;99988.84;4991051;28;20375;-82
2021/03/25 09:18:30;;;;;;;31.03;22.87;;;;;;;10.49;51.44;99986.97;5032549;28;20234;-80
2021/03/25 09:21:25;;;;;;;29.97;22.77;;;;;;;10.46;50.91;99979.31;5031996;28;20227;-81
2021/03/25 09:24:23;;;;;;;32.63;24.10;;;;;;;10.25;50.93;99926.03;5049075;28;20229;-81
2021/03/25 09:27:12;;;;;;;31.27;22.87;;;;;;;10.67;50.66;99963.00;5070490;28;20233;-82
2021/03/25 09:30:03;;;;;;;34.77;23.93;;;;;;;10.95;50.39;99978.75;5051234;28;20202;-79
2021/03/25 09:32:41;;;;;;;29.97;22.70;;;;;;;10.84;49.43;99982.91;5057093;28;20233;-82
2021/03/25 09:35:42;;;;;;;30.63;23.30;;;;;;;10.87;49.49;99970.97;5071223;28;20216;-82
2021/03/25 09:38:31;;;;;;;33.50;23.37;;;;;;;10.91;49.85;99978.34;5070453;28;20300;-82
2021/03/25 09:41:07;;;;;;;35.10;23.90;;;;;;;10.33;50.64;99956.09;5033935;28;20660;-79
2021/03/25 09:43:50;;;;;;;31.20;23.63;;;;;;;10.21;51.17;99949.75;5053546;28;20226;-79
2021/03/25 09:47:02;;;;;;;30.03;23.13;;;;;;;10.56;51.13;99961.78;5090391;28;20250;-80
2021/03/25 09:49:48;;;;;;;31.53;22.53;;;;;;;10.93;51.06;99976.28;5085210;28;20205;-79
2021/03/25 09:52:43;;;;;;;32.23;23.53;;;;;;;11.04;49.80;99966.75;5052928;28;20229;-81
2021/03/25 09:55:25;;;;;;;33.13;23.70;;;;;;;11.33;50.54;99963.47;5053591;28;20256;-79
2021/03/25 09:58:00;;;;;;;31.27;23.77;;;;;;;11.42;50.03;99950.63;5062617;28;20248;-80
2021/03/25 10:00:45;;;;;;;33.60;23.20;;;;;;;11.57;49.04;99964.53;5066418;28;20224;-79
2021/03/25 10:03:56;;;;;;;31.83;24.87;;;;;;;11.41;49.21;99957.84;5100376;28;20338;-81
2021/03/25 10:07:00;;;;;;;31.07;23.13;;;;;;;11.72;49.30;99953.47;5069788;28;20217;-83
2021/03/25 10:09:53;;;;;;;30.93;23.27;;;;;;;12.00;48.91;99953.88;5068403;28;20210;-79
2021/03/25 10:13:05;;;;;;;32.03;23.47;;;;;;;11.43;49.54;99952.28;5069267;28;20225;-79
2021/03/25 10:15:45;;;;;;;30.60;23.93;;;;;;;11.81;49.55;99955.69;5069129;28;20231;-78
2021/03/25 10:18:29;;;;;;;34.67;27.43;;;;;;;12.19;48.71;99957.41;5092483;28;20607;-81
2021/03/25 10:21:07;;;;;;;31.57;23.83;;;;;;;12.43;47.53;99951.16;5093207;28;20211;-81
2021/03/25 10:23:56;;;;;;;32.67;22.73;;;;;;;12.67;48.39;99950.28;5094536;28;20242;-80
2021/03/25 10:26:37;;;;;;;31.60;22.80;;;;;;;12.63;47.03;99927.59;5054858;28;20295;-82
2021/03/25 10:29:11;;;;;;;30.43;23.10;;;;;;;12.95;46.64;99935.44;5089654;28;20229;-82
2021/03/25 10:32:12;;;;;;;32.77;24.73;;;;;;;12.92;46.54;99934.03;5069968;28;20240;-79
2021/03/25 10:35:13;;;;;;;31.70;23.83;;;;;;;13.03;46.25;99921.66;5062541;28;20229;-78
2021/03/25 10:37:52;;;;;;;30.00;23.23;;;;;;;13.03;46.22;99908.22;5055103;28;20260;-82
2021/03/25 10:40:45;;;;;;;32.57;24.30;;;;;;;12.53;46.60;99916.53;5043164;28;20272;-79
2021/03/25 10:43:26;;;;;;;30.30;22.73;;;;;;;12.44;47.35;99909.00;5037637;28;20228;-81
2021/03/25 10:46:27;;;;;;;30.90;23.90;;;;;;;12.82;46.93;99922.19;5076748;28;20266;-81
2021/03/25 10:49:14;;;;;;;30.33;22.97;;;;;;;13.02;46.46;99901.19;5109173;28;20224;-79
2021/03/25 10:51:52;;;;;;;30.43;23.07;;;;;;;13.28;45.49;99876.63;5077047;28;20234;-79
2021/03/25 10:54:39;;;;;;;33.27;23.37;;;;;;;13.41;45.37;99897.13;5109627;28;20279;-82
2021/03/25 10:57:51;;;;;;;29.70;22.87;;;;;;;13.16;45.05;99889.22;5026782;28;20644;-78
2021/03/25 11:00:39;;;;;;;33.40;24.13;;;;;;;13.08;45.70;99878.75;5044078;28;20232;-79
2021/03/25 11:03:32;;;;;;;34.20;23.47;;;;;;;13.48;44.66;99873.63;5031440;28;20241;-79
2021/03/25 11:06:39;;;;;;;32.73;23.97;;;;;;;13.57;44.84;99888.38;5026487;28;20221;-82
2021/03/25 11:09:34;;;;;;;29.43;22.47;;;;;;;13.91;44.92;99892.13;5032286;28;20285;-78
2021/03/25 11:12:40;;;;;;;30.80;22.40;;;;;;;13.83;43.97;99866.38;5048252;28;20233;-79
2021/03/25 11:15:35;;;;;;;27.50;21.00;;;;;;;14.16;44.09;99870.31;5048986;28;20214;-77
2021/03/25 11:18:24;;;;;;;31.90;23.17;;;;;;;13.86;43.30;99862.38;5049347;28;20229;-77
2021/03/25 11:21:13;;;;;;;29.87;22.77;;;;;;;14.23;43.13;99860.25;5048744;28;20573;-77
2021/03/25 11:24:18;;;;;;;29.03;22.43;;;;;;;14.27;43.30;99854.16;5032063;28;20567;-79
2021/03/25 11:27:04;;;;;;;31.00;23.10;;;;;;;14.54;42.90;99862.53;5018712;28;20633;-80
2021/03/25 11:30:04;;;;;;;31.73;22.83;;;;;;;14.11;43.07;99853.00;5048638;28;20230;-77
2021/03/25 11:32:45;;;;;;;30.90;22.53;;;;;;;14.41;43.63;99844.78;5032123;28;20210;-77
2021/03/25 11:35:41;;;;;;;31.73;22.80;;;;;;;14.68;42.66;99847.72;5061311;23;20809;-78
2021/03/25 11:38:45;;;;;;;28.77;22.67;;;;;;;14.78;42.41;99844.38;5054519;28;20229;-76
2021/03/25 11:41:27;;;;;;;29.20;21.93;;;;;;;14.35;42.69;99834.91;5049810;28;20225;-77
2021/03/25 11:44:22;;;;;;;29.17;22.83;;;;;;;14.50;42.71;99832.53;5067447;28;20248;-78
2021/03/25 11:47:41;;;;;;;29.20;22.17;;;;;;;14.78;41.66;99839.81;5049321;28;20217;-77
2021/03/25 11:50:34;;;;;;;29.90;22.17;;;;;;;15.01;41.75;99841.56;5056586;23;20222;-77
2021/03/25 11:53:56;;;;;;;32.60;22.63;;;;;;;14.74;41.64;99829.75;5022260;28;20236;-78
2021/03/25 11:57:09;;;;;;;31.40;23.27;;;;;;;14.47;41.55;99811.44;5070061;28;20215;-77
2021/03/25 12:00:32;;;;;;;28.23;21.97;;;;;;;15.20;40.97;99826.78;5094805;23;20222;-77
2021/03/25 12:03:30;;;;;;;30.07;22.13;;;;;;;15.01;41.61;99817.28;5052698;28;20214;-77
2021/03/25 12:06:29;;;;;;;30.30;22.50;;;;;;;14.67;40.91;99775.94;5090060;22;20236;-77
2021/03/25 12:09:20;;;;;;;28.80;22.40;;;;;;;14.41;41.29;99795.44;5068359;28;20274;-78
2021/03/25 12:12:15;;;;;;;31.50;22.23;;;;;;;14.91;41.27;99811.72;5050453;28;20229;-80
2021/03/25 12:15:17;;;;;;;28.43;21.87;;;;;;;15.01;40.31;99789.47;5046660;28;20289;-78
2021/03/25 12:18:34;;;;;;;28.83;22.63;;;;;;;15.39;40.09;99790.38;5039861;28;20234;-77
2021/03/25 12:21:38;;;;;;;31.30;22.83;;;;;;;15.51;41.05;99790.31;5080399;23;20612;-77
2021/03/25 12:24:21;;;;;;;31.53;22.70;;;;;;;15.66;40.50;99770.81;5069099;23;20230;-77
2021/03/25 12:28:14;;;;;;;30.10;22.30;;;;;;;15.54;40.37;99779.00;5083714;22;20826;-78
2021/03/25 12:31:41;;;;;;;29.33;21.83;;;;;;;14.76;40.37;99781.75;5088507;28;20212;-77
2021/03/25 12:34:50;;;;;;;32.07;22.00;;;;;;;14.61;41.54;99781.47;5070140;28;20229;-79
2021/03/25 12:37:43;;;;;;;31.20;22.63;;;;;;;14.77;41.22;99759.13;5086145;28;20220;-81
2021/03/25 12:40:40;;;;;;;34.37;23.07;;;;;;;15.03;40.65;99765.75;5086601;28;20234;-78
2021/03/25 12:43:30;;;;;;;30.00;21.63;;;;;;;15.29;40.38;99754.31;5074553;28;20189;-79
2021/03/25 12:46:21;;;;;;;29.93;22.27;;;;;;;15.83;38.90;99753.47;5090967;28;20194;-77
2021/03/25 12:49:51;;;;;;;33.90;21.97;;;;;;;16.29;38.87;99762.13;5157699;23;20269;-77
2021/03/25 12:53:06;;;;;;;29.27;21.20;;;;;;;15.69;38.42;99743.28;5075757;28;20226;-77
2021/03/25 12:56:03;;;;;;;34.60;22.80;;;;;;;15.52;38.63;99731.72;5089264;28;20286;-76
2021/03/25 12:59:11;;;;;;;30.63;21.30;;;;;;;15.76;39.54;99744.75;5072214;28;20581;-76
2021/03/25 13:01:52;;;;;;;28.30;20.30;;;;;;;16.11;38.84;99743.53;5078485;23;20223;-76
2021/03/25 13:04:35;;;;;;;28.57;19.43;;;;;;;16.26;38.06;99739.13;5049228;28;20211;-77
2021/03/25 13:07:30;;;;;;;28.10;20.60;;;;;;;15.93;38.13;99733.06;5082524;22;20210;-79
2021/03/25 13:10:43;;;;;;;29.97;20.43;;;;;;;15.98;37.73;99725.03;5068510;28;20226;-77
2021/03/25 13:13:18;;;;;;;28.27;20.30;;;;;;;16.14;38.09;99724.94;5089915;22;20265;-77
2021/03/25 13:16:09;;;;;;;29.13;19.63;;;;;;;15.76;37.90;99698.84;5058492;28;20297;-77
2021/03/25 13:18:50;;;;;;;24.50;18.40;;;;;;;16.40;37.23;99711.69;5058995;28;20224;-77
2021/03/25 13:22:25;;;;;;;28.40;18.47;;;;;;;16.27;36.86;99704.81;5044688;28;20228;-77
2021/03/25 13:25:21;;;;;;;25.73;18.37;;;;;;;17.07;36.33;99709.34;5048372;28;20290;-81
2021/03/25 13:27:57;;;;;;;23.00;16.43;;;;;;;16.37;36.54;99656.25;5041798;22;20287;-78
2021/03/25 13:30:28;;;;;;;21.07;15.27;;;;;;;16.89;35.48;99688.09;5066056;28;20226;-84
2021/03/25 13:33:08;;;;;;;21.67;16.30;;;;;;;17.24;35.04;99699.16;5052018;28;20669;-78
2021/03/25 13:35:37;;;;;;;23.80;16.77;;;;;;;16.89;35.40;99688.09;5076104;28;20252;-82
2021/03/25 13:38:04;;;;;;;20.03;15.03;;;;;;;16.84;34.73;99688.06;5050248;28;20231;-82
2021/03/25 13:40:34;;;;;;;16.07;13.47;;;;;;;17.16;34.42;99691.53;5060611;28;20282;-83
2021/03/25 13:43:03;;;;;;;19.40;12.97;;;;;;;17.32;34.04;99649.09;5041409;28;20909;-83
2021/03/25 13:45:30;;;;;;;16.40;12.17;;;;;;;17.29;32.67;99680.25;5059419;28;20233;-81
2021/03/25 13:47:58;;;;;;;16.47;11.83;;;;;;;17.30;32.38;99672.94;5082523;28;20228;-85
2021/03/25 13:50:29;;;;;;;12.77;9.00;;;;;;;17.42;31.14;99679.75;5042376;28;20693;-82
2021/03/25 13:52:56;;;;;;;13.03;8.47;;;;;;;17.37;30.75;99665.38;5055207;28;20221;-86
2021/03/25 13:55:29;;;;;;;11.97;8.00;;;;;;;17.56;30.22;99680.91;5039152;28;20530;-83
2021/03/25 13:57:57;;;;;;;13.33;9.17;;;;;;;17.58;29.89;99669.84;5058893;28;20217;-82
2021/03/25 14:00:24;;;;;;;12.10;9.67;;;;;;;17.55;29.92;99641.34;5038508;28;20230;-85
2021/03/25 14:02:52;;;;;;;12.63;9.00;;;;;;;17.73;30.52;99674.53;5045842;28;20240;-85
2021/03/25 14:05:25;;;;;;;10.63;8.43;;;;;;;17.74;30.03;99665.31;5039063;28;20245;-84
2021/03/25 14:07:52;;;;;;;11.00;8.20;;;;;;;17.79;30.21;99660.72;5038692;28;20225;-84
2021/03/25 14:10:24;;;;;;;11.03;8.20;;;;;;;17.70;30.13;99658.78;5039439;28;20302;-81
2021/03/25 14:12:52;;;;;;;10.73;8.30;;;;;;;17.65;30.41;99662.28;5061524;28;20249;-84
2021/03/25 14:15:29;;;;;;;12.53;8.27;;;;;;;17.29;30.34;99658.56;5071240;28;20703;-82
2021/03/25 14:18:08;;;;;;;12.17;7.87;;;;;;;17.56;30.84;99655.72;5074072;28;20704;-79
2021/03/25 14:20:52;;;;;;;12.20;8.13;;;;;;;17.62;30.94;99651.19;5073137;28;20645;-78
2021/03/25 14:23:31;;;;;;;11.23;8.50;;;;;;;17.51;30.56;99655.69;5057722;28;20224;-78
2021/03/25 14:26:07;;;;;;;12.33;8.73;;;;;;;17.33;31.28;99648.84;5053554;28;20225;-82
2021/03/25 14:28:44;;;;;;;14.83;8.83;;;;;;;17.27;30.85;99646.38;5041750;28;20274;-78
2021/03/25 14:31:19;;;;;;;14.93;8.87;;;;;;;17.23;31.22;99651.50;5048479;28;20224;-80